createdAt,value
2018-01-04T00:00:53.622Z,99276.17
2018-01-04T00:03:21.284Z,99277.11
2018-01-04T00:05:49.167Z,99281.48
2018-01-04T00:08:16.803Z,99288.50
2018-01-04T00:10:44.439Z,99284.09
2018-01-04T00:13:12.212Z,99293.27
2018-01-04T00:15:39.938Z,99286.53
2018-01-04T00:18:07.606Z,99292.70
2018-01-04T00:20:35.196Z,99299.92
2018-01-04T00:23:03.126Z,99295.55
2018-01-04T00:25:31.013Z,99298.42
2018-01-04T00:27:58.814Z,99312.91
2018-01-04T00:30:26.414Z,99306.75
2018-01-04T00:32:54.030Z,99309.45
2018-01-04T00:35:21.675Z,99313.33
2018-01-04T00:37:49.289Z,99317.86
2018-01-04T00:40:16.939Z,99298.19
2018-01-04T00:42:44.571Z,99295.53
2018-01-04T00:45:12.172Z,99306.94
2018-01-04T00:47:39.842Z,99303.22
2018-01-04T00:50:07.545Z,99302.03
2018-01-04T00:52:35.436Z,99307.34
2018-01-04T00:55:03.144Z,99311.95
2018-01-04T00:57:31.104Z,99312.03
2018-01-04T00:59:58.793Z,99317.71
2018-01-04T01:02:26.472Z,99320.20
2018-01-04T01:04:54.355Z,99324.00
2018-01-04T01:07:21.945Z,99326.28
2018-01-04T01:09:49.649Z,99327.80
2018-01-04T01:12:17.280Z,99329.06
2018-01-04T01:14:45.091Z,99328.03
2018-01-04T01:17:12.759Z,99328.58
2018-01-04T01:19:40.514Z,99329.55
2018-01-04T01:22:08.166Z,99334.29
2018-01-04T01:24:35.848Z,99336.74
2018-01-04T01:27:03.456Z,99330.81
2018-01-04T01:29:31.125Z,99326.61
2018-01-04T01:31:58.787Z,99326.94
2018-01-04T01:34:26.547Z,99329.79
2018-01-04T01:36:54.376Z,99325.80
2018-01-04T01:39:22.098Z,99332.24
2018-01-04T01:41:49.748Z,99331.52
2018-01-04T01:44:18.395Z,99333.51
2018-01-04T01:46:46.464Z,99330.89
2018-01-04T01:49:16.267Z,99335.55
2018-01-04T01:51:43.977Z,99336.05
2018-01-04T01:54:11.727Z,99330.25
2018-01-04T01:56:39.464Z,99326.12
2018-01-04T01:59:07.105Z,99329.75
2018-01-04T02:01:35.069Z,99339.67
2018-01-04T02:04:02.817Z,99348.87
2018-01-04T02:06:30.617Z,99343.31
2018-01-04T02:08:58.362Z,99343.88
2018-01-04T02:11:29.540Z,99353.93
2018-01-04T02:13:57.273Z,99354.17
2018-01-04T02:16:25.145Z,99352.13
2018-01-04T02:19:04.488Z,99352.59
2018-01-04T02:21:44.016Z,99355.61
2018-01-04T02:24:23.267Z,99351.80
2018-01-04T02:27:04.250Z,99359.73
2018-01-04T02:29:43.509Z,99343.48
2018-01-04T02:32:22.868Z,99347.14
2018-01-04T02:35:02.257Z,99346.09
2018-01-04T02:37:41.694Z,99345.06
2018-01-04T02:43:36.934Z,99352.13
2018-01-04T02:46:16.290Z,99350.05
2018-01-04T02:48:44.050Z,99358.22
2018-01-04T02:51:11.832Z,99348.54
2018-01-04T02:53:39.688Z,99353.39
2018-01-04T02:56:07.286Z,99344.50
2018-01-04T02:58:35.011Z,99344.49
2018-01-04T03:01:02.727Z,99347.84
2018-01-04T03:03:30.404Z,99351.23
2018-01-04T03:05:58.109Z,99351.80
2018-01-04T03:08:25.748Z,99347.27
2018-01-04T03:10:53.376Z,99345.77
2018-01-04T03:13:21.072Z,99349.19
2018-01-04T03:15:48.924Z,99355.20
2018-01-04T03:18:16.668Z,99357.73
2018-01-04T03:20:44.502Z,99356.33
2018-01-04T03:23:17.960Z,99361.40
2018-01-04T03:25:54.928Z,99352.09
2018-01-04T03:28:28.226Z,99354.74
2018-01-04T03:31:01.506Z,99353.16
2018-01-04T03:36:42.549Z,99368.05
2018-01-04T03:39:15.922Z,99357.97
2018-01-04T03:41:48.992Z,99360.14
2018-01-04T03:44:22.592Z,99361.89
2018-01-04T03:46:56.000Z,99369.33
2018-01-04T03:49:29.688Z,99370.99
2018-01-04T03:52:03.049Z,99366.22
2018-01-04T03:54:36.690Z,99375.03
2018-01-04T04:00:16.462Z,99375.98
2018-01-04T04:02:49.701Z,99370.34
2018-01-04T04:05:23.290Z,99368.95
2018-01-04T04:07:51.532Z,99361.48
2018-01-04T04:10:19.214Z,99366.71
2018-01-04T04:12:47.171Z,99373.53
2018-01-04T04:15:15.031Z,99378.14
2018-01-04T04:17:42.999Z,99382.80
2018-01-04T04:20:10.612Z,99377.66
2018-01-04T04:22:38.280Z,99384.14
2018-01-04T04:25:07.438Z,99389.70
2018-01-04T04:27:35.098Z,99390.97
2018-01-04T04:30:02.935Z,99397.38
2018-01-04T04:32:30.906Z,99391.37
2018-01-04T04:34:58.894Z,99391.05
2018-01-04T04:37:26.512Z,99398.59
2018-01-04T04:39:54.256Z,99391.53
2018-01-04T04:42:21.919Z,99386.70
2018-01-04T04:44:49.832Z,99393.13
2018-01-04T04:47:17.541Z,99381.86
2018-01-04T04:49:45.202Z,99387.16
2018-01-04T04:52:13.504Z,99389.00
2018-01-04T04:54:41.527Z,99383.45
2018-01-04T04:57:09.217Z,99380.10
2018-01-04T04:59:36.949Z,99377.08
2018-01-04T05:02:04.551Z,99378.75
2018-01-04T05:04:32.574Z,99377.33
2018-01-04T05:07:00.754Z,99376.59
2018-01-04T05:09:28.430Z,99385.25
2018-01-04T05:11:56.018Z,99389.83
2018-01-04T05:14:23.703Z,99377.70
2018-01-04T05:16:51.336Z,99383.98
2018-01-04T05:19:18.914Z,99373.03
2018-01-04T05:21:46.540Z,99373.52
2018-01-04T05:24:14.125Z,99377.41
2018-01-04T05:26:41.794Z,99374.70
2018-01-04T05:29:09.400Z,99364.88
2018-01-04T05:31:37.022Z,99371.16
2018-01-04T05:34:04.654Z,99365.93
2018-01-04T05:36:32.543Z,99366.95
2018-01-04T05:39:00.460Z,99365.93
2018-01-04T05:41:28.299Z,99366.95
2018-01-04T05:43:55.932Z,99372.02
2018-01-04T05:46:23.512Z,99378.43
2018-01-04T05:48:51.347Z,99374.79
2018-01-04T05:51:19.086Z,99375.12
2018-01-04T05:53:46.729Z,99385.09
2018-01-04T05:56:14.309Z,99392.31
2018-01-04T05:58:42.187Z,99382.95
2018-01-04T06:01:09.807Z,99382.31
2018-01-04T06:03:37.425Z,99377.73
2018-01-04T06:06:05.045Z,99379.62
2018-01-04T06:08:32.725Z,99386.92
2018-01-04T06:11:00.425Z,99390.23
2018-01-04T06:13:28.053Z,99395.22
2018-01-04T06:15:56.826Z,99392.52
2018-01-04T06:18:24.482Z,99398.48
2018-01-04T06:20:52.224Z,99398.02
2018-01-04T06:23:20.001Z,99407.05
2018-01-04T06:25:47.987Z,99407.59
2018-01-04T06:28:15.596Z,99409.09
2018-01-04T06:30:43.307Z,99418.69
2018-01-04T06:33:10.949Z,99416.41
2018-01-04T06:35:38.610Z,99413.95
2018-01-04T06:38:06.278Z,99407.91
2018-01-04T06:40:33.979Z,99399.13
2018-01-04T06:43:01.614Z,99402.11
2018-01-04T06:45:29.494Z,99400.77
2018-01-04T06:47:57.154Z,99400.72
2018-01-04T06:50:25.137Z,99392.39
2018-01-04T06:52:52.814Z,99390.39
2018-01-04T06:55:25.763Z,99391.50
2018-01-04T06:57:53.407Z,99379.69
2018-01-04T07:00:20.993Z,99384.19
2018-01-04T07:02:48.854Z,99391.83
2018-01-04T07:05:16.518Z,99393.17
2018-01-04T07:07:44.151Z,99388.80
2018-01-04T07:10:11.900Z,99388.80
2018-01-04T07:12:39.538Z,99392.52
2018-01-04T07:15:07.502Z,99399.91
2018-01-04T07:17:35.275Z,99406.73
2018-01-04T07:20:02.919Z,99401.34
2018-01-04T07:22:30.582Z,99408.94
2018-01-04T07:24:58.247Z,99407.34
2018-01-04T07:27:26.427Z,99420.82
2018-01-04T07:29:54.060Z,99426.78
2018-01-04T07:32:21.685Z,99416.70
2018-01-04T07:34:49.727Z,99415.05
2018-01-04T07:37:17.365Z,99411.95
2018-01-04T07:39:44.960Z,99405.92
2018-01-04T07:42:12.669Z,99402.28
2018-01-04T07:44:40.289Z,99408.08
2018-01-04T07:47:07.897Z,99396.31
2018-01-04T07:49:35.636Z,99409.59
2018-01-04T07:52:03.555Z,99406.32
2018-01-04T07:54:31.535Z,99405.30
2018-01-04T07:56:59.244Z,99404.56
2018-01-04T07:59:26.861Z,99401.42
2018-01-04T08:01:54.535Z,99397.13
2018-01-04T08:04:22.154Z,99389.53
2018-01-04T08:06:49.903Z,99394.52
2018-01-04T08:09:17.528Z,99399.98
2018-01-04T08:11:45.170Z,99397.05
2018-01-04T08:14:12.852Z,99401.09
2018-01-04T08:16:40.791Z,99400.93
2018-01-04T08:19:08.454Z,99391.58
2018-01-04T08:21:36.108Z,99406.89
2018-01-04T08:24:04.105Z,99394.76
2018-01-04T08:26:31.721Z,99397.38
2018-01-04T08:28:59.337Z,99397.38
2018-01-04T08:31:27.007Z,99399.91
2018-01-04T08:33:54.620Z,99394.52
2018-01-04T08:36:22.255Z,99390.87
2018-01-04T08:38:50.071Z,99402.84
2018-01-04T08:41:17.631Z,99399.13
2018-01-04T08:43:45.250Z,99393.25
2018-01-04T08:46:12.860Z,99388.72
2018-01-04T08:48:40.545Z,99387.24
2018-01-04T08:51:08.211Z,99401.58
2018-01-04T08:53:35.904Z,99394.77
2018-01-04T08:56:03.804Z,99397.05
2018-01-04T08:58:31.473Z,99387.78
2018-01-04T09:00:59.376Z,99388.56
2018-01-04T09:03:26.963Z,99383.41
2018-01-04T09:05:54.599Z,99382.55
2018-01-04T09:08:22.266Z,99388.10
2018-01-04T09:10:50.276Z,99391.25
2018-01-04T09:13:17.855Z,99400.07
2018-01-04T09:15:45.518Z,99400.69
2018-01-04T09:18:13.380Z,99389.28
2018-01-04T09:20:41.011Z,99393.73
2018-01-04T09:23:09.007Z,99389.45
2018-01-04T09:25:36.595Z,99396.97
2018-01-04T09:28:04.229Z,99394.59
2018-01-04T09:30:32.193Z,99393.33
2018-01-04T09:32:59.830Z,99402.89
2018-01-04T09:35:27.454Z,99405.83
2018-01-04T09:37:55.233Z,99409.09
2018-01-04T09:40:22.901Z,99398.84
2018-01-04T09:42:50.814Z,99400.03
2018-01-04T09:45:18.518Z,99406.69
2018-01-04T09:47:46.110Z,99400.97
2018-01-04T09:50:14.952Z,99398.92
2018-01-04T09:52:44.007Z,99391.33
2018-01-04T09:55:11.688Z,99382.99
2018-01-04T09:57:39.342Z,99381.32
2018-01-04T10:00:07.242Z,99387.66
2018-01-04T10:02:35.111Z,99375.20
2018-01-04T10:05:02.740Z,99385.20
2018-01-04T10:07:30.375Z,99385.52
2018-01-04T10:09:58.480Z,99385.20
2018-01-04T10:12:26.346Z,99385.73
2018-01-04T10:14:54.157Z,99383.11
2018-01-04T10:17:21.775Z,99374.48
2018-01-04T10:19:49.411Z,99374.70
2018-01-04T10:22:18.164Z,99374.16
2018-01-04T10:24:45.755Z,99373.05
2018-01-04T10:27:13.434Z,99374.70
2018-01-04T10:29:41.040Z,99374.78
2018-01-04T10:32:08.648Z,99373.05
2018-01-04T10:34:36.731Z,99374.23
2018-01-04T10:37:04.611Z,99370.32
2018-01-04T10:39:32.256Z,99364.32
2018-01-04T10:41:59.899Z,99359.00
2018-01-04T10:44:27.790Z,99348.91
2018-01-04T10:46:55.403Z,99340.74
2018-01-04T10:49:23.082Z,99339.31
2018-01-04T10:51:50.721Z,99334.56
2018-01-04T10:54:18.341Z,99330.80
2018-01-04T10:56:46.317Z,99326.62
2018-01-04T10:59:14.276Z,99322.25
2018-01-04T11:01:42.361Z,99322.25
2018-01-04T11:04:09.953Z,99312.16
2018-01-04T11:06:37.617Z,99308.26
2018-01-04T11:09:05.307Z,99302.98
2018-01-04T11:11:32.927Z,99289.55
2018-01-04T11:14:00.615Z,99290.24
2018-01-04T11:16:28.242Z,99294.36
2018-01-04T11:18:56.192Z,99292.23
2018-01-04T11:21:24.056Z,99290.02
2018-01-04T11:23:51.650Z,99289.48
2018-01-04T11:26:19.307Z,99287.22
2018-01-04T11:28:46.968Z,99287.47
2018-01-04T11:31:14.542Z,99282.80
2018-01-04T11:33:42.572Z,99287.47
2018-01-04T11:36:10.204Z,99285.71
2018-01-04T11:38:37.770Z,99282.92
2018-01-04T11:41:05.660Z,99278.00
2018-01-04T11:43:33.488Z,99270.92
2018-01-04T11:46:01.141Z,99267.04
2018-01-04T11:48:28.824Z,99261.48
2018-01-04T11:50:56.466Z,99254.90
2018-01-04T11:53:24.218Z,99247.73
2018-01-04T11:55:51.862Z,99245.71
2018-01-04T11:58:19.697Z,99244.58
2018-01-04T12:00:47.313Z,99236.38
2018-01-04T12:03:14.915Z,99232.31
2018-01-04T12:05:43.512Z,99221.58
2018-01-04T12:08:11.072Z,99209.28
2018-01-04T12:10:38.746Z,99204.02
2018-01-04T12:13:06.620Z,99207.90
2018-01-04T12:15:34.247Z,99205.27
2018-01-04T12:18:01.850Z,99202.70
2018-01-04T12:20:29.468Z,99196.89
2018-01-04T12:22:57.087Z,99189.34
2018-01-04T12:25:24.773Z,99191.67
2018-01-04T12:27:52.375Z,99184.25
2018-01-04T12:30:20.025Z,99179.96
2018-01-04T12:32:47.599Z,99176.08
2018-01-04T12:35:15.585Z,99167.44
2018-01-04T12:37:43.558Z,99157.82
2018-01-04T12:40:11.159Z,99164.57
2018-01-04T12:42:39.058Z,99153.84
2018-01-04T12:45:06.882Z,99144.69
2018-01-04T12:47:34.483Z,99143.98
2018-01-04T12:50:02.671Z,99147.13
2018-01-04T12:52:30.748Z,99139.43
2018-01-04T12:54:58.417Z,99133.59
2018-01-04T12:57:25.981Z,99120.12
2018-01-04T12:59:53.621Z,99107.77
2018-01-04T13:02:21.587Z,99111.65
2018-01-04T13:04:49.260Z,99109.63
2018-01-04T13:07:16.937Z,99098.66
2018-01-04T13:09:44.613Z,99085.66
2018-01-04T13:12:12.655Z,99085.03
2018-01-04T13:14:40.304Z,99083.67
2018-01-04T13:17:08.279Z,99077.80
2018-01-04T13:19:36.652Z,99077.28
2018-01-04T13:22:04.393Z,99068.41
2018-01-04T13:24:32.011Z,99056.47
2018-01-04T13:26:59.587Z,99046.95
2018-01-04T13:29:27.610Z,99049.72
2018-01-04T13:31:55.404Z,99043.37
2018-01-04T13:34:23.056Z,99039.44
2018-01-04T13:36:50.787Z,99036.00
2018-01-04T13:39:18.473Z,99036.63
2018-01-04T13:41:46.202Z,99037.07
2018-01-04T13:44:14.070Z,99043.39
2018-01-04T13:46:41.673Z,99042.41
2018-01-04T13:49:09.297Z,99032.75
2018-01-04T13:51:37.143Z,99032.01
2018-01-04T13:54:05.056Z,99034.11
2018-01-04T13:56:32.752Z,99027.77
2018-01-04T13:59:00.354Z,99022.62
2018-01-04T14:01:28.386Z,99024.58
2018-01-04T14:04:10.908Z,99018.27
2018-01-04T14:06:43.503Z,99018.87
2018-01-04T14:09:11.855Z,99007.02
2018-01-04T14:11:39.550Z,99000.06
2018-01-04T14:14:07.448Z,98991.50
2018-01-04T14:16:35.052Z,98984.52
2018-01-04T14:19:02.719Z,98979.08
2018-01-04T14:21:39.666Z,98967.31
2018-01-04T14:24:07.271Z,98968.29
2018-01-04T14:26:35.095Z,98962.66
2018-01-04T14:29:02.738Z,98945.88
2018-01-04T14:31:30.616Z,98950.27
2018-01-04T14:33:58.240Z,98937.84
2018-01-04T14:36:25.850Z,98931.03
2018-01-04T14:38:53.442Z,98926.36
2018-01-04T14:41:21.100Z,98920.23
2018-01-04T14:43:48.761Z,98928.07
2018-01-04T14:46:16.470Z,98917.16
2018-01-04T14:48:44.260Z,98912.03
2018-01-04T14:51:12.214Z,98906.41
2018-01-04T14:53:39.804Z,98892.75
2018-01-04T14:56:07.430Z,98891.34
2018-01-04T14:58:35.039Z,98878.02
2018-01-04T15:01:02.603Z,98866.79
2018-01-04T15:03:30.215Z,98872.41
2018-01-04T15:05:57.796Z,98867.60
2018-01-04T15:08:25.391Z,98860.09
2018-01-04T15:10:53.068Z,98859.44
2018-01-04T15:13:20.855Z,98859.31
2018-01-04T15:15:48.673Z,98858.23
2018-01-04T15:18:16.618Z,98858.04
2018-01-04T15:20:44.478Z,98855.28
2018-01-04T15:23:12.346Z,98855.39
2018-01-04T15:25:40.072Z,98851.75
2018-01-04T15:28:08.098Z,98845.59
2018-01-04T15:30:36.751Z,98845.66
2018-01-04T15:33:04.748Z,98847.05
2018-01-04T15:35:32.596Z,98843.52
2018-01-04T15:38:00.269Z,98832.55
2018-01-04T15:40:27.971Z,98830.73
2018-01-04T15:42:55.632Z,98829.23
2018-01-04T15:45:27.574Z,98831.53
2018-01-04T15:47:55.632Z,98815.23
2018-01-04T15:50:23.291Z,98820.63
2018-01-04T15:52:54.553Z,98811.78
2018-01-04T15:55:22.274Z,98804.01
2018-01-04T15:57:50.009Z,98811.76
2018-01-04T16:00:24.579Z,98805.91
2018-01-04T16:02:57.142Z,98799.70
2018-01-04T16:05:26.905Z,98793.02
2018-01-04T16:07:56.756Z,98787.59
2018-01-04T16:10:30.097Z,98781.56
2018-01-04T16:12:59.184Z,98789.92
2018-01-04T16:15:29.745Z,98790.09
2018-01-04T16:17:57.472Z,98779.78
2018-01-04T16:20:25.450Z,98771.91
2018-01-04T16:22:53.386Z,98763.18
2018-01-04T16:28:07.690Z,98754.66
2018-01-04T16:30:35.600Z,98740.33
2018-01-04T16:33:09.328Z,98734.67
2018-01-04T16:35:40.039Z,98733.49
2018-01-04T16:38:07.926Z,98726.83
2018-01-04T16:40:38.782Z,98719.92
2018-01-04T16:43:06.681Z,98712.21
2018-01-04T16:45:37.505Z,98703.13
2018-01-04T16:48:08.843Z,98690.45
2018-01-04T16:50:37.672Z,98692.46
2018-01-04T16:53:07.053Z,98692.30
2018-01-04T16:55:34.860Z,98694.44
2018-01-04T17:00:36.798Z,98685.19
2018-01-04T17:03:07.190Z,98674.80
2018-01-04T17:05:37.882Z,98678.30
2018-01-04T17:08:05.934Z,98675.33
2018-01-04T17:10:40.027Z,98662.69
2018-01-04T17:13:07.761Z,98663.70
2018-01-04T17:15:39.119Z,98655.27
2018-01-04T17:18:06.763Z,98653.38
2018-01-04T17:20:34.512Z,98658.69
2018-01-04T17:23:03.693Z,98661.67
2018-01-04T17:25:31.616Z,98641.35
2018-01-04T17:27:59.857Z,98641.19
2018-01-04T17:30:32.134Z,98638.31
2018-01-04T17:32:59.863Z,98640.62
2018-01-04T17:35:27.544Z,98639.38
2018-01-04T17:38:00.082Z,98630.20
2018-01-04T17:40:27.791Z,98633.19
2018-01-04T17:42:56.618Z,98624.39
2018-01-04T17:45:24.609Z,98620.55
2018-01-04T17:47:53.679Z,98609.41
2018-01-04T17:53:04.539Z,98603.33
2018-01-04T17:55:38.636Z,98607.48
2018-01-04T17:58:08.269Z,98607.38
2018-01-04T18:00:36.698Z,98613.22
2018-01-04T18:03:06.176Z,98610.44
2018-01-04T18:05:34.935Z,98609.20
2018-01-04T18:08:06.141Z,98592.32
2018-01-04T18:10:33.852Z,98595.53
2018-01-04T18:13:02.417Z,98588.72
2018-01-04T18:15:33.642Z,98585.84
2018-01-04T18:18:02.032Z,98591.63
2018-01-04T18:20:30.351Z,98596.08
2018-01-04T18:22:58.252Z,98607.85
2018-01-04T18:25:26.818Z,98584.74
2018-01-04T18:27:54.816Z,98585.32
2018-01-04T18:30:22.836Z,98573.27
2018-01-04T18:32:53.437Z,98572.62
2018-01-04T18:35:21.143Z,98567.09
2018-01-04T18:37:48.886Z,98573.50
2018-01-04T18:40:16.764Z,98574.19
2018-01-04T18:42:44.780Z,98574.87
2018-01-04T18:45:12.517Z,98581.72
2018-01-04T18:47:40.430Z,98575.11
2018-01-04T18:50:08.585Z,98579.66
2018-01-04T18:52:36.416Z,98575.53
2018-01-04T18:55:04.224Z,98577.52
2018-01-04T18:57:32.081Z,98587.25
2018-01-04T18:59:59.756Z,98592.77
2018-01-04T19:02:31.901Z,98599.08
2018-01-04T19:05:00.670Z,98600.30
2018-01-04T19:07:28.483Z,98598.42
2018-01-04T19:09:57.145Z,98601.75
2018-01-04T19:12:24.813Z,98616.13
2018-01-04T19:14:52.578Z,98605.37
2018-01-04T19:17:20.390Z,98610.82
2018-01-04T19:19:48.190Z,98610.64
2018-01-04T19:22:16.121Z,98602.31
2018-01-04T19:24:43.855Z,98603.44
2018-01-04T19:27:11.591Z,98611.63
2018-01-04T19:29:39.386Z,98611.58
2018-01-04T19:32:08.463Z,98601.06
2018-01-04T19:34:37.102Z,98605.88
2018-01-04T19:37:05.013Z,98600.82
2018-01-04T19:39:40.473Z,98605.27
2018-01-04T19:42:08.225Z,98609.29
2018-01-04T19:44:44.364Z,98602.19
2018-01-04T19:47:15.155Z,98608.23
2018-01-04T19:49:42.913Z,98615.20
2018-01-04T19:52:10.627Z,98608.91
2018-01-04T19:54:39.013Z,98614.23
2018-01-04T19:57:13.409Z,98612.27
2018-01-04T19:59:41.344Z,98619.95
2018-01-04T20:02:09.044Z,98627.95
2018-01-04T20:04:48.636Z,98633.94
2018-01-04T20:07:17.537Z,98621.00
2018-01-04T20:09:45.698Z,98629.66
2018-01-04T20:12:16.366Z,98637.99
2018-01-04T20:14:44.660Z,98639.65
2018-01-04T20:17:13.318Z,98640.69
2018-01-04T20:19:42.161Z,98631.96
2018-01-04T20:22:10.326Z,98634.89
2018-01-04T20:24:42.114Z,98640.69
2018-01-04T20:27:11.848Z,98635.28
2018-01-04T20:29:46.047Z,98640.65
2018-01-04T20:32:21.870Z,98637.22
2018-01-04T20:35:02.821Z,98660.43
2018-01-04T20:37:31.553Z,98663.09
2018-01-04T20:40:01.366Z,98664.24
2018-01-04T20:42:31.900Z,98669.33
2018-01-04T20:45:09.068Z,98677.09
2018-01-04T20:47:38.352Z,98670.91
2018-01-04T20:50:14.228Z,98664.33
2018-01-04T20:52:41.967Z,98676.03
2018-01-04T20:55:10.259Z,98658.84
2018-01-04T20:57:41.625Z,98677.25
2018-01-04T21:00:13.985Z,98674.61
2018-01-04T21:02:47.717Z,98677.74
2018-01-04T21:05:23.334Z,98687.92
2018-01-04T21:07:51.923Z,98685.62
2018-01-04T21:10:21.347Z,98699.77
2018-01-04T21:12:51.741Z,98693.25
2018-01-04T21:15:19.426Z,98697.37
2018-01-04T21:17:50.902Z,98693.33
2018-01-04T21:20:20.239Z,98707.41
2018-01-04T21:22:47.971Z,98726.69
2018-01-04T21:25:17.728Z,98719.23
2018-01-04T21:27:48.775Z,98726.10
2018-01-04T21:30:19.539Z,98743.20
2018-01-04T21:32:52.166Z,98751.08
2018-01-04T21:35:19.859Z,98740.04
2018-01-04T21:37:50.008Z,98758.16
2018-01-04T21:40:17.943Z,98761.09
2018-01-04T21:42:45.671Z,98747.03
2018-01-04T21:45:13.683Z,98765.38
2018-01-04T21:47:47.613Z,98767.33
2018-01-04T21:50:15.948Z,98761.85
2018-01-04T21:55:36.205Z,98781.64
2018-01-04T21:58:04.409Z,98775.47
2018-01-04T22:00:32.102Z,98777.16
2018-01-04T22:02:59.785Z,98781.21
2018-01-04T22:08:35.185Z,98785.89
2018-01-04T22:11:04.279Z,98786.00
2018-01-04T22:13:32.152Z,98796.91
2018-01-04T22:16:00.469Z,98792.63
2018-01-04T22:18:28.210Z,98800.78
2018-01-04T22:20:56.430Z,98801.73
2018-01-04T22:23:25.450Z,98797.02
2018-01-04T22:25:53.609Z,98810.11
2018-01-04T22:28:21.337Z,98811.86
2018-01-04T22:30:55.379Z,98810.97
2018-01-04T22:33:23.438Z,98811.80
2018-01-04T22:36:00.074Z,98821.64
2018-01-04T22:38:28.077Z,98817.42
2018-01-04T22:41:00.693Z,98836.77
2018-01-04T22:43:28.402Z,98835.19
2018-01-04T22:45:57.130Z,98836.64
2018-01-04T22:48:30.119Z,98842.73
2018-01-04T22:50:57.770Z,98852.58
2018-01-04T22:53:26.076Z,98845.16
2018-01-04T22:55:53.706Z,98849.99
2018-01-04T22:58:21.794Z,98847.41
2018-01-04T23:01:02.009Z,98849.50
2018-01-04T23:03:30.014Z,98855.90
2018-01-04T23:05:57.856Z,98862.41
2018-01-04T23:08:27.872Z,98850.84
2018-01-04T23:10:56.826Z,98861.17
2018-01-04T23:16:06.463Z,98874.55
2018-01-04T23:18:34.163Z,98866.80
2018-01-04T23:21:01.967Z,98881.91
2018-01-04T23:23:29.684Z,98869.42
2018-01-04T23:25:58.418Z,98855.50
2018-01-04T23:28:26.189Z,98857.66
2018-01-04T23:31:02.842Z,98864.39
2018-01-04T23:33:32.804Z,98875.34
2018-01-04T23:36:00.765Z,98862.52
2018-01-04T23:38:28.792Z,98872.23
2018-01-04T23:40:56.598Z,98871.23
2018-01-04T23:43:24.287Z,98869.30
2018-01-04T23:45:52.098Z,98879.78
2018-01-04T23:48:20.939Z,98884.30
2018-01-04T23:50:51.312Z,98892.56
2018-01-04T23:53:20.116Z,98883.63
2018-01-04T23:55:47.754Z,98874.37
2018-01-04T23:58:15.475Z,98890.55
